Vossburg, Mississippi
Current Conditions -  °F | °C
As of 4:58 PM on Wednesday 22 Oct 2014 (Local Time) from KMEI Reporting Station
Clear Clear  
Wind Chill: 70°   Ceiling: Unl
Heat Index: 70°   Visibility: 10mi
Dew Point: 43°   Wind: 10mph
Humidity: 38%   Direction: 360°N
Pressure: 30.09"   Gusts: NA
Location:  31.93°N, 88.94°W
Report Text: KMEI 222158Z 36009KT 10SM CLR 21/06 A3009 RMK AO2 SLP186 T02110061
Loading
Personal Weather Stations






























Interactive Weather Map
Tropical Storm Tracking
New forecast layout! Learn more

10-Day Weather Forecast

Advertisements
Track Severe Weather on mobile